createdAt,value
2023-10-05T00:00:40.799Z,99.90
2023-10-05T00:03:27.901Z,99.90
2023-10-05T00:06:24.661Z,99.90
2023-10-05T00:09:14.440Z,99.90
2023-10-05T00:12:03.328Z,99.90
2023-10-05T00:14:56.530Z,99.90
2023-10-05T00:17:42.409Z,99.90
2023-10-05T00:20:39.603Z,99.90
2023-10-05T00:23:25.622Z,99.90
2023-10-05T00:26:11.337Z,99.90
2023-10-05T00:29:02.706Z,99.90
2023-10-05T00:31:48.694Z,99.90
2023-10-05T00:34:35.098Z,99.90
2023-10-05T00:37:23.853Z,99.90
2023-10-05T00:40:13.305Z,99.90
2023-10-05T00:43:05.261Z,99.90
2023-10-05T00:45:51.905Z,99.90
2023-10-05T00:48:39.516Z,99.90
2023-10-05T00:51:27.833Z,99.90
2023-10-05T00:54:20.830Z,99.90
2023-10-05T00:57:10.599Z,99.90
2023-10-05T01:00:05.213Z,99.90
2023-10-05T01:03:20.037Z,99.90
2023-10-05T01:06:29.163Z,99.90
2023-10-05T01:09:32.676Z,99.90
2023-10-05T01:12:21.115Z,99.90
2023-10-05T01:15:08.173Z,99.90
2023-10-05T01:17:55.500Z,99.90
2023-10-05T01:20:44.309Z,99.90
2023-10-05T01:23:39.364Z,99.90
2023-10-05T01:26:25.949Z,99.90
2023-10-05T01:29:11.559Z,99.90
2023-10-05T01:31:57.730Z,99.90
2023-10-05T01:34:43.893Z,99.90
2023-10-05T01:37:33.755Z,99.90
2023-10-05T01:40:21.037Z,99.90
2023-10-05T01:43:07.571Z,99.90
2023-10-05T01:45:53.663Z,99.90
2023-10-05T01:48:40.117Z,99.90
2023-10-05T01:51:27.962Z,99.90
2023-10-05T01:54:16.700Z,99.90
2023-10-05T01:57:09.151Z,99.90
2023-10-05T01:59:55.659Z,99.90
2023-10-05T02:02:43.900Z,99.90
2023-10-05T02:05:31.699Z,99.90
2023-10-05T02:08:17.353Z,99.90
2023-10-05T02:11:05.326Z,99.90
2023-10-05T02:13:53.418Z,99.90
2023-10-05T02:16:40.376Z,99.90
2023-10-05T02:19:26.942Z,99.90
2023-10-05T02:22:13.151Z,99.90
2023-10-05T02:24:59.268Z,99.90
2023-10-05T02:27:47.933Z,99.90
2023-10-05T02:30:35.008Z,99.90
2023-10-05T02:33:25.606Z,99.90
2023-10-05T02:36:11.396Z,99.90
2023-10-05T02:38:58.024Z,99.90
2023-10-05T02:41:44.719Z,99.90
2023-10-05T02:44:31.924Z,99.90
2023-10-05T02:47:24.307Z,99.90
2023-10-05T02:50:10.961Z,99.90
2023-10-05T02:52:56.681Z,99.90
2023-10-05T02:55:42.102Z,99.90
2023-10-05T02:58:27.936Z,99.90
2023-10-05T03:01:14.971Z,99.90
2023-10-05T03:04:18.225Z,99.90
2023-10-05T03:07:05.825Z,99.90
2023-10-05T03:09:53.760Z,99.90
2023-10-05T03:12:41.575Z,99.90
2023-10-05T03:15:29.390Z,99.90
2023-10-05T03:18:17.533Z,99.90
2023-10-05T03:21:10.542Z,99.90
2023-10-05T03:23:57.189Z,99.90
2023-10-05T03:26:43.733Z,99.90
2023-10-05T03:29:29.924Z,99.90
2023-10-05T03:32:15.841Z,99.90
2023-10-05T03:35:01.776Z,99.90
2023-10-05T03:37:49.521Z,99.90
2023-10-05T03:40:38.200Z,99.90
2023-10-05T03:43:24.392Z,99.90
2023-10-05T03:46:13.461Z,99.90
2023-10-05T03:49:08.000Z,99.90
2023-10-05T03:51:57.102Z,99.90
2023-10-05T03:54:45.562Z,99.90
2023-10-05T03:57:34.479Z,99.90
2023-10-05T04:00:23.056Z,99.90
2023-10-05T04:03:09.711Z,99.90
2023-10-05T04:05:56.026Z,99.90
2023-10-05T04:08:42.547Z,99.90
2023-10-05T04:11:30.073Z,99.90
2023-10-05T04:14:16.069Z,99.90
2023-10-05T04:17:08.960Z,99.90
2023-10-05T04:19:55.607Z,99.90
2023-10-05T04:22:41.538Z,99.90
2023-10-05T04:25:26.986Z,99.90
2023-10-05T04:28:14.713Z,99.90
2023-10-05T04:31:00.547Z,99.90
2023-10-05T04:33:46.800Z,99.90
2023-10-05T04:36:33.142Z,99.90
2023-10-05T04:39:30.758Z,99.90
2023-10-05T04:42:17.262Z,99.90
2023-10-05T04:45:12.764Z,99.90
2023-10-05T04:48:01.345Z,99.90
2023-10-05T04:50:50.742Z,99.90
2023-10-05T04:53:39.516Z,99.90
2023-10-05T04:56:40.664Z,99.90
2023-10-05T04:59:29.881Z,99.90
2023-10-05T05:02:23.469Z,99.90
2023-10-05T05:05:29.138Z,99.90
2023-10-05T05:08:15.143Z,99.90
2023-10-05T05:11:00.668Z,99.90
2023-10-05T05:13:47.405Z,99.90
2023-10-05T05:16:33.062Z,99.90
2023-10-05T05:19:20.002Z,99.90
2023-10-05T05:22:06.521Z,99.90
2023-10-05T05:24:52.317Z,99.90
2023-10-05T05:27:37.877Z,99.90
2023-10-05T05:30:26.837Z,99.90
2023-10-05T05:33:12.802Z,99.90
2023-10-05T05:36:06.588Z,99.90
2023-10-05T05:38:52.219Z,99.90
2023-10-05T05:41:38.300Z,99.90
2023-10-05T05:44:23.952Z,99.90
2023-10-05T05:47:12.308Z,99.90
2023-10-05T05:50:02.137Z,99.90
2023-10-05T05:52:49.507Z,99.90
2023-10-05T05:55:35.165Z,99.90
2023-10-05T05:58:21.222Z,99.90
2023-10-05T06:01:09.261Z,99.90
2023-10-05T06:03:55.153Z,99.90
2023-10-05T06:06:41.350Z,99.90
2023-10-05T06:09:33.992Z,99.90
2023-10-05T06:12:19.648Z,99.90
2023-10-05T06:15:05.868Z,99.90
2023-10-05T06:17:51.619Z,99.90
2023-10-05T06:20:37.347Z,99.90
2023-10-05T06:23:23.229Z,99.90
2023-10-05T06:26:10.817Z,99.90
2023-10-05T06:28:57.123Z,99.90
2023-10-05T06:31:44.437Z,99.90
2023-10-05T06:34:30.563Z,99.90
2023-10-05T06:37:16.482Z,99.90
2023-10-05T06:40:02.617Z,99.90
2023-10-05T06:42:50.979Z,99.90
2023-10-05T06:45:36.982Z,99.90
2023-10-05T06:48:22.987Z,99.90
2023-10-05T06:51:09.065Z,99.90
2023-10-05T06:53:54.935Z,99.90
2023-10-05T06:56:42.796Z,99.90
2023-10-05T06:59:32.581Z,99.90
2023-10-05T07:02:19.346Z,99.90
2023-10-05T07:05:07.170Z,99.90
2023-10-05T07:07:52.904Z,99.90
2023-10-05T07:10:38.583Z,99.90
2023-10-05T07:13:25.446Z,99.90
2023-10-05T07:16:13.243Z,99.90
2023-10-05T07:18:58.980Z,99.90
2023-10-05T07:21:45.785Z,99.90
2023-10-05T07:24:31.702Z,99.90
2023-10-05T07:27:17.409Z,99.90
2023-10-05T07:30:04.791Z,99.90
2023-10-05T07:33:08.762Z,99.90
2023-10-05T07:35:58.378Z,99.90
2023-10-05T07:38:45.461Z,99.90
2023-10-05T07:41:32.042Z,99.90
2023-10-05T07:44:18.600Z,99.90
2023-10-05T07:47:04.649Z,99.90
2023-10-05T07:49:53.212Z,99.90
2023-10-05T07:52:39.614Z,99.90
2023-10-05T07:55:25.402Z,99.90
2023-10-05T07:58:11.211Z,99.90
2023-10-05T08:00:57.196Z,99.90
2023-10-05T08:03:42.921Z,99.90
2023-10-05T08:06:30.581Z,99.90
2023-10-05T08:09:16.819Z,99.90
2023-10-05T08:12:02.608Z,99.90
2023-10-05T08:14:49.408Z,99.90
2023-10-05T08:17:35.105Z,99.90
2023-10-05T08:20:25.827Z,99.90
2023-10-05T08:23:15.035Z,99.90
2023-10-05T08:26:00.866Z,99.90
2023-10-05T08:28:51.499Z,99.90
2023-10-05T08:31:37.401Z,99.90
2023-10-05T08:34:23.525Z,99.90
2023-10-05T08:37:10.365Z,99.90
2023-10-05T08:39:57.524Z,99.90
2023-10-05T08:42:47.244Z,99.90
2023-10-05T08:45:35.713Z,99.90
2023-10-05T08:48:30.499Z,99.90
2023-10-05T08:51:17.515Z,99.90
2023-10-05T08:54:04.163Z,99.90
2023-10-05T08:56:53.606Z,99.90
2023-10-05T08:59:40.513Z,99.90
2023-10-05T09:02:26.302Z,99.90
2023-10-05T09:05:16.182Z,99.90
2023-10-05T09:08:01.954Z,99.90
2023-10-05T09:10:52.226Z,99.90
2023-10-05T09:13:46.379Z,99.90
2023-10-05T09:16:42.353Z,99.90
2023-10-05T09:19:34.711Z,99.90
2023-10-05T09:22:24.419Z,99.90
2023-10-05T09:25:17.255Z,99.90
2023-10-05T09:28:16.596Z,99.90
2023-10-05T09:31:09.030Z,99.90
2023-10-05T09:34:07.637Z,99.90
2023-10-05T09:36:55.985Z,99.90
2023-10-05T09:39:50.561Z,99.90
2023-10-05T09:42:41.877Z,99.90
2023-10-05T09:45:34.510Z,99.90
2023-10-05T09:48:25.661Z,99.90
2023-10-05T09:51:15.326Z,99.90
2023-10-05T09:54:03.283Z,99.90
2023-10-05T09:56:49.133Z,99.90
2023-10-05T09:59:38.886Z,99.90
2023-10-05T10:02:28.414Z,99.90
2023-10-05T10:05:32.182Z,99.90
2023-10-05T10:08:24.695Z,99.90
2023-10-05T10:11:20.938Z,99.90
2023-10-05T10:14:10.795Z,99.90
2023-10-05T10:17:01.759Z,99.90
2023-10-05T10:19:56.503Z,99.90
2023-10-05T10:22:54.184Z,99.90
2023-10-05T10:25:40.226Z,99.90
2023-10-05T10:28:47.658Z,99.90
2023-10-05T10:31:44.530Z,99.90
2023-10-05T10:34:44.597Z,99.90
2023-10-05T10:37:40.152Z,99.90
2023-10-05T10:40:28.674Z,99.90
2023-10-05T10:43:15.312Z,99.90
2023-10-05T10:46:01.831Z,99.90
2023-10-05T10:49:00.166Z,99.90
2023-10-05T10:51:47.472Z,99.10
2023-10-05T10:54:34.752Z,98.70
2023-10-05T10:57:27.348Z,97.80
2023-10-05T11:00:32.323Z,96.70
2023-10-05T11:03:19.155Z,95.40
2023-10-05T11:06:05.706Z,93.40
2023-10-05T11:08:51.702Z,93.80
2023-10-05T11:11:38.453Z,92.70
2023-10-05T11:14:32.913Z,91.70
2023-10-05T11:17:36.402Z,91.60
2023-10-05T11:20:26.422Z,91.60
2023-10-05T11:23:12.722Z,92.20
2023-10-05T11:26:18.792Z,91.60
2023-10-05T11:29:09.207Z,90.60
2023-10-05T11:32:29.360Z,91.70
2023-10-05T11:35:18.992Z,92.00
2023-10-05T11:38:07.773Z,92.10
2023-10-05T11:40:57.472Z,91.60
2023-10-05T11:43:45.248Z,91.50
2023-10-05T11:46:49.664Z,91.70
2023-10-05T11:49:42.887Z,91.30
2023-10-05T11:52:29.865Z,90.50
2023-10-05T11:55:16.254Z,91.00
2023-10-05T11:58:03.037Z,89.60
2023-10-05T12:00:49.006Z,90.50
2023-10-05T12:03:34.611Z,91.00
2023-10-05T12:06:25.259Z,90.80
2023-10-05T12:09:28.255Z,91.90
2023-10-05T12:12:15.009Z,92.00
2023-10-05T12:15:13.573Z,92.60
2023-10-05T12:17:59.806Z,92.40
2023-10-05T12:20:47.272Z,92.20
2023-10-05T12:23:37.213Z,92.60
2023-10-05T12:26:22.734Z,93.90
2023-10-05T12:29:15.400Z,94.60
2023-10-05T12:32:05.331Z,94.80
2023-10-05T12:34:52.537Z,95.00
2023-10-05T12:37:39.094Z,95.40
2023-10-05T12:40:34.821Z,95.40
2023-10-05T12:43:22.430Z,95.50
2023-10-05T12:46:11.627Z,95.80
2023-10-05T12:49:08.967Z,95.80
2023-10-05T12:51:57.514Z,95.60
2023-10-05T12:54:45.163Z,95.40
2023-10-05T12:57:32.419Z,94.80
2023-10-05T13:00:40.199Z,94.40
2023-10-05T13:03:29.185Z,94.10
2023-10-05T13:06:17.548Z,94.40
2023-10-05T13:09:05.158Z,93.40
2023-10-05T13:11:51.111Z,93.50
2023-10-05T13:14:38.024Z,93.10
2023-10-05T13:17:26.417Z,92.60
2023-10-05T13:20:16.567Z,93.40
2023-10-05T13:23:03.204Z,93.80
2023-10-05T13:25:49.639Z,94.40
2023-10-05T13:28:36.230Z,94.30
2023-10-05T13:31:26.578Z,93.10
2023-10-05T13:34:20.936Z,94.70
2023-10-05T13:37:09.847Z,94.60
2023-10-05T13:40:01.052Z,94.30
2023-10-05T13:42:47.044Z,93.50
2023-10-05T13:45:35.459Z,93.60
2023-10-05T13:48:23.596Z,94.20
2023-10-05T13:51:12.996Z,94.40
2023-10-05T13:53:58.905Z,94.00
2023-10-05T13:56:44.574Z,94.70
2023-10-05T13:59:30.482Z,94.50
2023-10-05T14:02:16.120Z,95.30
2023-10-05T14:05:03.686Z,95.60
2023-10-05T14:07:52.603Z,95.80
2023-10-05T14:10:39.133Z,96.00
2023-10-05T14:13:25.165Z,95.80
2023-10-05T14:16:13.087Z,95.90
2023-10-05T14:18:59.384Z,96.00
2023-10-05T14:21:47.681Z,95.70
2023-10-05T14:24:36.190Z,95.90
2023-10-05T14:27:24.379Z,96.00
2023-10-05T14:30:18.032Z,95.60
2023-10-05T14:33:04.974Z,95.00
2023-10-05T14:35:57.810Z,96.10
2023-10-05T14:38:47.070Z,97.60
2023-10-05T14:41:35.262Z,97.00
2023-10-05T14:44:21.304Z,97.20
2023-10-05T14:47:13.117Z,97.00
2023-10-05T14:49:59.063Z,97.30
2023-10-05T14:52:49.953Z,97.30
2023-10-05T14:55:38.294Z,97.20
2023-10-05T14:58:24.349Z,97.20
2023-10-05T15:01:12.650Z,97.70
2023-10-05T15:04:00.346Z,97.70
2023-10-05T15:06:46.395Z,98.10
2023-10-05T15:09:35.561Z,97.80
2023-10-05T15:12:22.805Z,98.10
2023-10-05T15:15:11.010Z,98.00
2023-10-05T15:17:57.575Z,98.30
2023-10-05T15:20:43.667Z,98.40
2023-10-05T15:23:29.417Z,98.10
2023-10-05T15:26:17.947Z,98.70
2023-10-05T15:29:06.727Z,98.80
2023-10-05T15:31:54.544Z,99.00
2023-10-05T15:34:40.703Z,99.10
2023-10-05T15:37:26.478Z,99.00
2023-10-05T15:40:16.145Z,99.40
2023-10-05T15:43:02.025Z,99.70
2023-10-05T15:45:51.316Z,99.30
2023-10-05T15:48:37.275Z,99.30
2023-10-05T15:51:24.560Z,98.80
2023-10-05T15:54:10.271Z,99.00
2023-10-05T15:57:01.283Z,99.20
2023-10-05T15:59:48.795Z,99.90
2023-10-05T16:02:35.706Z,99.90
2023-10-05T16:05:21.683Z,99.60
2023-10-05T16:08:08.064Z,99.90
2023-10-05T16:10:53.983Z,99.90
2023-10-05T16:13:40.030Z,99.90
2023-10-05T16:16:26.968Z,99.90
2023-10-05T16:19:14.427Z,99.90
2023-10-05T16:22:00.519Z,99.90
2023-10-05T16:24:46.320Z,99.90
2023-10-05T16:27:32.629Z,99.90
2023-10-05T16:30:20.087Z,99.90
2023-10-05T16:33:07.636Z,99.90
2023-10-05T16:35:55.751Z,99.90
2023-10-05T16:38:42.935Z,99.90
2023-10-05T16:41:28.885Z,99.90
2023-10-05T16:44:15.153Z,99.90
2023-10-05T16:47:00.872Z,99.90
2023-10-05T16:49:46.548Z,99.90
2023-10-05T16:52:36.335Z,99.90
2023-10-05T16:55:23.101Z,99.90
2023-10-05T16:58:09.893Z,99.90
2023-10-05T17:00:55.706Z,99.90
2023-10-05T17:03:42.264Z,99.90
2023-10-05T17:06:29.558Z,99.90
2023-10-05T17:09:16.542Z,99.90
2023-10-05T17:12:02.454Z,99.90
2023-10-05T17:14:49.753Z,99.90
2023-10-05T17:17:35.934Z,99.90
2023-10-05T17:20:22.981Z,99.90
2023-10-05T17:23:09.686Z,99.90
2023-10-05T17:25:58.360Z,99.90
2023-10-05T17:28:44.227Z,99.90
2023-10-05T17:31:29.925Z,99.90
2023-10-05T17:34:15.550Z,99.90
2023-10-05T17:37:01.107Z,99.90
2023-10-05T17:39:47.442Z,99.90
2023-10-05T17:42:34.756Z,99.90
2023-10-05T17:45:20.970Z,99.90
2023-10-05T17:48:07.090Z,99.90
2023-10-05T17:50:55.029Z,99.90
2023-10-05T17:53:40.959Z,99.90
2023-10-05T17:56:26.374Z,99.90
2023-10-05T17:59:14.078Z,99.90
2023-10-05T18:02:00.340Z,99.90
2023-10-05T18:04:46.470Z,99.90
2023-10-05T18:07:32.205Z,99.90
2023-10-05T18:10:18.547Z,99.90
2023-10-05T18:13:04.417Z,99.90
2023-10-05T18:15:55.047Z,99.90
2023-10-05T18:18:40.935Z,99.90
2023-10-05T18:21:26.833Z,99.90
2023-10-05T18:24:13.515Z,99.90
2023-10-05T18:26:59.592Z,99.90
2023-10-05T18:29:46.446Z,99.90
2023-10-05T18:32:33.820Z,99.90
2023-10-05T18:35:19.724Z,99.90
2023-10-05T18:38:06.728Z,99.90
2023-10-05T18:40:53.087Z,99.90
2023-10-05T18:43:39.334Z,99.90
2023-10-05T18:46:25.055Z,99.90
2023-10-05T18:49:12.347Z,99.90
2023-10-05T18:51:58.758Z,99.90
2023-10-05T18:54:45.768Z,99.90
2023-10-05T18:57:31.735Z,99.90
2023-10-05T19:00:20.826Z,99.90
2023-10-05T19:03:07.483Z,99.90
2023-10-05T19:05:54.504Z,99.90
2023-10-05T19:08:40.309Z,99.90
2023-10-05T19:11:25.849Z,99.90
2023-10-05T19:14:12.022Z,99.90
2023-10-05T19:17:01.452Z,99.90
2023-10-05T19:19:47.166Z,99.90
2023-10-05T19:22:34.428Z,99.90
2023-10-05T19:25:20.262Z,99.90
2023-10-05T19:28:07.463Z,99.90
2023-10-05T19:31:00.790Z,99.90
2023-10-05T19:33:46.899Z,99.90
2023-10-05T19:36:32.625Z,99.90
2023-10-05T19:39:19.869Z,99.90
2023-10-05T19:42:07.443Z,99.90
2023-10-05T19:44:53.219Z,99.90
2023-10-05T19:47:39.157Z,99.90
2023-10-05T19:50:24.723Z,99.90
2023-10-05T19:53:10.814Z,99.90
2023-10-05T19:55:58.788Z,99.90
2023-10-05T19:58:44.766Z,99.90
2023-10-05T20:01:30.945Z,99.90
2023-10-05T20:04:17.555Z,99.90
2023-10-05T20:07:08.589Z,99.90
2023-10-05T20:09:56.407Z,99.90
2023-10-05T20:12:44.705Z,99.90
2023-10-05T20:15:30.677Z,99.90
2023-10-05T20:18:17.274Z,99.90
2023-10-05T20:21:09.974Z,99.90
2023-10-05T20:23:55.673Z,99.90
2023-10-05T20:26:41.341Z,99.90
2023-10-05T20:29:31.711Z,99.90
2023-10-05T20:32:18.266Z,99.90
2023-10-05T20:35:06.982Z,99.90
2023-10-05T20:37:52.825Z,99.90
2023-10-05T20:40:38.787Z,99.90
2023-10-05T20:43:24.862Z,99.90
2023-10-05T20:46:12.524Z,99.90
2023-10-05T20:48:58.541Z,99.90
2023-10-05T20:51:46.048Z,99.90
2023-10-05T20:54:32.240Z,99.90
2023-10-05T20:57:18.107Z,99.90
2023-10-05T21:00:08.407Z,99.90
2023-10-05T21:02:55.783Z,99.90
2023-10-05T21:05:41.561Z,99.90
2023-10-05T21:08:27.235Z,99.90
2023-10-05T21:11:14.340Z,99.90
2023-10-05T21:14:00.311Z,99.90
2023-10-05T21:16:46.280Z,99.90
2023-10-05T21:19:38.047Z,99.90
2023-10-05T21:22:24.152Z,99.90
2023-10-05T21:25:11.539Z,99.90
2023-10-05T21:27:57.549Z,99.90
2023-10-05T21:30:43.316Z,99.90
2023-10-05T21:33:31.948Z,99.90
2023-10-05T21:36:24.349Z,99.90
2023-10-05T21:39:10.300Z,99.90
2023-10-05T21:41:55.890Z,99.90
2023-10-05T21:44:41.830Z,99.90
2023-10-05T21:47:27.751Z,99.90
2023-10-05T21:50:14.766Z,99.90
2023-10-05T21:53:05.226Z,99.90
2023-10-05T21:55:50.989Z,99.90
2023-10-05T21:58:38.834Z,99.90
2023-10-05T22:01:25.429Z,99.90
2023-10-05T22:04:11.324Z,99.90
2023-10-05T22:06:56.937Z,99.90
2023-10-05T22:09:44.996Z,99.90
2023-10-05T22:12:35.812Z,99.90
2023-10-05T22:15:22.188Z,99.90
2023-10-05T22:18:08.090Z,99.90
2023-10-05T22:20:53.888Z,99.90
2023-10-05T22:23:39.591Z,99.90
2023-10-05T22:26:26.396Z,99.90
2023-10-05T22:29:12.379Z,99.90
2023-10-05T22:31:57.960Z,99.90
2023-10-05T22:34:43.739Z,99.90
2023-10-05T22:37:29.320Z,99.90
2023-10-05T22:40:15.292Z,99.90
2023-10-05T22:43:02.637Z,99.90
2023-10-05T22:45:48.844Z,99.90
2023-10-05T22:48:34.467Z,99.90
2023-10-05T22:51:21.036Z,99.90
2023-10-05T22:54:06.884Z,99.90
2023-10-05T22:56:52.819Z,99.90
2023-10-05T22:59:40.030Z,99.90
2023-10-05T23:02:25.907Z,99.90
2023-10-05T23:05:12.737Z,99.90
2023-10-05T23:07:58.633Z,99.90
2023-10-05T23:10:44.393Z,99.90
2023-10-05T23:13:30.028Z,99.90
2023-10-05T23:16:22.962Z,99.90
2023-10-05T23:19:12.216Z,99.90
2023-10-05T23:21:57.735Z,99.90
2023-10-05T23:24:43.382Z,99.90
2023-10-05T23:27:28.966Z,99.90
2023-10-05T23:30:16.156Z,99.90
2023-10-05T23:33:07.088Z,99.90
2023-10-05T23:36:00.567Z,99.90
2023-10-05T23:38:46.674Z,99.90
2023-10-05T23:41:32.314Z,99.90
2023-10-05T23:44:20.615Z,99.90
2023-10-05T23:47:22.181Z,99.90
2023-10-05T23:50:11.887Z,99.90
2023-10-05T23:52:59.031Z,99.90
2023-10-05T23:55:45.420Z,99.90
2023-10-05T23:58:31.973Z,99.90
